createdAt,value
2017-08-21T00:00:40.335Z,960.72
2017-08-21T00:01:40.327Z,960.73
2017-08-21T00:02:40.318Z,960.73
2017-08-21T00:03:40.311Z,960.76
2017-08-21T00:04:40.306Z,960.73
2017-08-21T00:05:40.294Z,960.74
2017-08-21T00:06:40.288Z,960.72
2017-08-21T00:07:40.277Z,960.8
2017-08-21T00:08:40.270Z,960.76
2017-08-21T00:09:40.273Z,960.73
2017-08-21T00:10:40.252Z,960.75
2017-08-21T00:11:40.245Z,960.77
2017-08-21T00:12:40.236Z,960.79
2017-08-21T00:13:40.229Z,960.78
2017-08-21T00:14:40.233Z,960.81
2017-08-21T00:15:40.210Z,960.77
2017-08-21T00:16:40.212Z,960.77
2017-08-21T00:17:40.195Z,960.78
2017-08-21T00:18:40.185Z,960.76
2017-08-21T00:19:40.177Z,960.8
2017-08-21T00:20:40.167Z,960.79
2017-08-21T00:21:40.173Z,960.77
2017-08-21T00:22:40.150Z,960.75
2017-08-21T00:23:40.143Z,960.75
2017-08-21T00:24:40.135Z,960.77
2017-08-21T00:25:40.125Z,960.75
2017-08-21T00:26:40.130Z,960.78
2017-08-21T00:27:40.109Z,960.76
2017-08-21T00:28:40.100Z,960.8
2017-08-21T00:29:40.093Z,960.78
2017-08-21T00:30:40.082Z,960.79
2017-08-21T00:31:40.097Z,960.76
2017-08-21T00:32:40.065Z,960.78
2017-08-21T00:33:40.059Z,960.8
2017-08-21T00:34:40.049Z,960.81
2017-08-21T00:35:40.041Z,960.79
2017-08-21T00:36:40.032Z,960.74
2017-08-21T00:37:40.024Z,960.76
2017-08-21T00:38:40.037Z,960.72
2017-08-21T00:39:40.007Z,960.81
2017-08-21T00:40:39.997Z,960.8
2017-08-21T00:41:39.989Z,960.84
2017-08-21T00:42:39.992Z,960.85
2017-08-21T00:43:39.971Z,960.85
2017-08-21T00:44:39.961Z,960.85
2017-08-21T00:45:39.953Z,960.86
2017-08-21T00:46:39.946Z,960.83
2017-08-21T00:47:39.937Z,960.81
2017-08-21T00:48:39.927Z,960.82
2017-08-21T00:49:39.919Z,960.81
2017-08-21T00:50:39.911Z,960.84
2017-08-21T00:51:39.904Z,960.86
2017-08-21T00:52:39.893Z,960.8
2017-08-21T00:53:39.888Z,960.8
2017-08-21T00:54:39.876Z,960.77
2017-08-21T00:55:39.868Z,960.78
2017-08-21T00:56:39.860Z,960.77
2017-08-21T00:57:39.851Z,960.77
2017-08-21T00:58:39.842Z,960.78
2017-08-21T00:59:39.833Z,960.75
2017-08-21T01:00:39.826Z,960.76
2017-08-21T01:01:39.815Z,960.74
2017-08-21T01:02:39.807Z,960.74
2017-08-21T01:03:39.798Z,960.75
2017-08-21T01:04:39.790Z,960.73
2017-08-21T01:05:39.781Z,960.74
2017-08-21T01:06:39.772Z,960.76
2017-08-21T01:07:39.763Z,960.77
2017-08-21T01:08:39.756Z,960.79
2017-08-21T01:09:39.748Z,960.78
2017-08-21T01:10:39.737Z,960.8
2017-08-21T01:11:39.730Z,960.8
2017-08-21T01:12:39.720Z,960.8
2017-08-21T01:13:39.718Z,960.77
2017-08-21T01:14:39.704Z,960.75
2017-08-21T01:15:39.694Z,960.75
2017-08-21T01:16:39.686Z,960.76
2017-08-21T01:17:39.678Z,960.81
2017-08-21T01:18:39.667Z,960.8
2017-08-21T01:19:39.661Z,960.79
2017-08-21T01:20:39.653Z,960.77
2017-08-21T01:21:39.645Z,960.8
2017-08-21T01:22:39.635Z,960.78
2017-08-21T01:23:39.629Z,960.79
2017-08-21T01:24:39.621Z,960.8
2017-08-21T01:25:39.609Z,960.79
2017-08-21T01:26:39.601Z,960.8
2017-08-21T01:27:39.593Z,960.77
2017-08-21T01:28:39.584Z,960.76
2017-08-21T01:29:39.575Z,960.79
2017-08-21T01:30:39.573Z,960.77
2017-08-21T01:31:39.558Z,960.83
2017-08-21T01:32:39.564Z,960.79
2017-08-21T01:33:39.543Z,960.84
2017-08-21T01:34:39.535Z,960.82
2017-08-21T01:35:39.524Z,960.85
2017-08-21T01:36:39.517Z,960.85
2017-08-21T01:37:39.509Z,960.87
2017-08-21T01:38:39.512Z,960.9
2017-08-21T01:39:39.490Z,960.87
2017-08-21T01:40:39.491Z,960.84
2017-08-21T01:41:39.476Z,960.88
2017-08-21T01:42:39.466Z,960.88
2017-08-21T01:43:39.458Z,960.85
2017-08-21T01:44:39.451Z,960.86
2017-08-21T01:45:39.442Z,960.84
2017-08-21T01:46:39.435Z,960.82
2017-08-21T01:47:39.426Z,960.82
2017-08-21T01:48:39.418Z,960.87
2017-08-21T01:49:39.408Z,960.85
2017-08-21T01:50:39.400Z,960.86
2017-08-21T01:51:39.391Z,960.87
2017-08-21T01:52:39.383Z,960.88
2017-08-21T01:53:39.374Z,960.87
2017-08-21T01:54:39.367Z,960.87
2017-08-21T01:55:39.377Z,960.86
2017-08-21T01:56:39.350Z,960.9
2017-08-21T01:57:39.342Z,960.87
2017-08-21T01:58:39.334Z,960.89
2017-08-21T01:59:39.327Z,960.92
2017-08-21T02:00:39.317Z,960.87
2017-08-21T02:01:39.310Z,960.89
2017-08-21T02:02:39.302Z,960.85
2017-08-21T02:03:39.294Z,960.87
2017-08-21T02:04:39.285Z,960.85
2017-08-21T02:05:39.278Z,960.85
2017-08-21T02:06:39.270Z,960.86
2017-08-21T02:07:39.261Z,960.82
2017-08-21T02:08:39.252Z,960.81
2017-08-21T02:09:39.258Z,960.8
2017-08-21T02:10:39.237Z,960.76
2017-08-21T02:11:39.230Z,960.74
2017-08-21T02:12:39.221Z,960.78
2017-08-21T02:13:39.213Z,960.78
2017-08-21T02:14:39.205Z,960.79
2017-08-21T02:15:39.198Z,960.89
2017-08-21T02:16:39.189Z,960.84
2017-08-21T02:17:39.182Z,960.83
2017-08-21T02:18:39.171Z,960.81
2017-08-21T02:19:39.165Z,960.83
2017-08-21T02:20:39.158Z,960.84
2017-08-21T02:21:39.150Z,960.89
2017-08-21T02:22:39.141Z,960.81
2017-08-21T02:23:39.132Z,960.81
2017-08-21T02:24:39.124Z,960.81
2017-08-21T02:25:39.138Z,960.84
2017-08-21T02:26:39.109Z,960.83
2017-08-21T02:27:39.102Z,960.78
2017-08-21T02:28:39.094Z,960.8
2017-08-21T02:29:39.087Z,960.76
2017-08-21T02:30:39.082Z,960.75
2017-08-21T02:31:39.073Z,960.72
2017-08-21T02:32:39.063Z,960.73
2017-08-21T02:33:39.056Z,960.74
2017-08-21T02:34:39.049Z,960.75
2017-08-21T02:35:39.044Z,960.73
2017-08-21T02:36:39.030Z,960.76
2017-08-21T02:37:39.022Z,960.74
2017-08-21T02:38:39.015Z,960.72
2017-08-21T02:39:39.006Z,960.73
2017-08-21T02:40:38.999Z,960.73
2017-08-21T02:41:38.990Z,960.72
2017-08-21T02:42:38.984Z,960.71
2017-08-21T02:43:38.983Z,960.73
2017-08-21T02:44:38.967Z,960.74
2017-08-21T02:45:38.959Z,960.75
2017-08-21T02:46:38.955Z,960.75
2017-08-21T02:47:38.999Z,960.75
2017-08-21T02:48:38.934Z,960.79
2017-08-21T02:49:38.927Z,960.71
2017-08-21T02:50:38.919Z,960.73
2017-08-21T02:51:38.915Z,960.68
2017-08-21T02:52:38.903Z,960.68
2017-08-21T02:53:38.897Z,960.65
2017-08-21T02:54:38.887Z,960.67
2017-08-21T02:55:38.878Z,960.7
2017-08-21T02:56:38.870Z,960.72
2017-08-21T02:57:38.862Z,960.7
2017-08-21T02:58:38.854Z,960.67
2017-08-21T02:59:38.847Z,960.68
2017-08-21T03:00:38.838Z,960.67
2017-08-21T03:01:38.832Z,960.7
2017-08-21T03:02:38.822Z,960.68
2017-08-21T03:03:38.815Z,960.69
2017-08-21T03:04:38.807Z,960.68
2017-08-21T03:05:38.798Z,960.64
2017-08-21T03:06:38.790Z,960.69
2017-08-21T03:07:38.781Z,960.67
2017-08-21T03:08:38.785Z,960.66
2017-08-21T03:09:38.766Z,960.65
2017-08-21T03:10:38.758Z,960.68
2017-08-21T03:11:38.752Z,960.69
2017-08-21T03:12:38.743Z,960.69
2017-08-21T03:13:38.735Z,960.68
2017-08-21T03:14:38.727Z,960.68
2017-08-21T03:15:38.718Z,960.7
2017-08-21T03:16:38.729Z,960.72
2017-08-21T03:17:38.703Z,960.74
2017-08-21T03:18:38.695Z,960.73
2017-08-21T03:19:38.688Z,960.75
2017-08-21T03:20:38.679Z,960.71
2017-08-21T03:21:38.670Z,960.72
2017-08-21T03:22:38.662Z,960.67
2017-08-21T03:23:38.655Z,960.68
2017-08-21T03:24:38.645Z,960.66
2017-08-21T03:25:38.638Z,960.66
2017-08-21T03:26:38.631Z,960.63
2017-08-21T03:27:38.621Z,960.63
2017-08-21T03:28:38.614Z,960.64
2017-08-21T03:29:38.604Z,960.63
2017-08-21T03:30:38.600Z,960.63
2017-08-21T03:31:38.589Z,960.6
2017-08-21T03:32:38.582Z,960.57
2017-08-21T03:33:38.573Z,960.6
2017-08-21T03:34:38.565Z,960.55
2017-08-21T03:35:38.558Z,960.55
2017-08-21T03:36:38.549Z,960.51
2017-08-21T03:37:38.541Z,960.55
2017-08-21T03:38:38.533Z,960.54
2017-08-21T03:39:38.524Z,960.51
2017-08-21T03:40:38.517Z,960.56
2017-08-21T03:41:38.508Z,960.56
2017-08-21T03:42:38.500Z,960.54
2017-08-21T03:43:38.493Z,960.52
2017-08-21T03:44:38.484Z,960.54
2017-08-21T03:45:38.476Z,960.53
2017-08-21T03:46:38.468Z,960.54
2017-08-21T03:47:38.467Z,960.51
2017-08-21T03:48:38.473Z,960.54
2017-08-21T03:49:38.466Z,960.57
2017-08-21T03:50:38.435Z,960.56
2017-08-21T03:51:38.428Z,960.58
2017-08-21T03:52:38.420Z,960.57
2017-08-21T03:53:38.411Z,960.58
2017-08-21T03:54:38.404Z,960.6
2017-08-21T03:55:38.395Z,960.54
2017-08-21T03:56:38.386Z,960.58
2017-08-21T03:57:38.378Z,960.57
2017-08-21T03:58:38.382Z,960.57
2017-08-21T03:59:38.361Z,960.56
2017-08-21T04:00:38.354Z,960.57
2017-08-21T04:01:38.348Z,960.58
2017-08-21T04:02:38.338Z,960.6
2017-08-21T04:03:38.330Z,960.58
2017-08-21T04:04:38.321Z,960.6
2017-08-21T04:05:38.314Z,960.6
2017-08-21T04:06:38.305Z,960.63
2017-08-21T04:07:38.298Z,960.61
2017-08-21T04:08:38.290Z,960.64
2017-08-21T04:09:38.285Z,960.65
2017-08-21T04:10:38.272Z,960.61
2017-08-21T04:11:38.264Z,960.64
2017-08-21T04:12:38.254Z,960.63
2017-08-21T04:13:38.248Z,960.68
2017-08-21T04:14:38.241Z,960.66
2017-08-21T04:15:38.234Z,960.71
2017-08-21T04:16:38.223Z,960.72
2017-08-21T04:17:38.216Z,960.7
2017-08-21T04:18:38.207Z,960.72
2017-08-21T04:19:38.198Z,960.7
2017-08-21T04:20:38.197Z,960.73
2017-08-21T04:21:38.184Z,960.72
2017-08-21T04:22:38.173Z,960.76
2017-08-21T04:23:38.167Z,960.71
2017-08-21T04:24:38.160Z,960.73
2017-08-21T04:25:38.150Z,960.74
2017-08-21T04:26:38.142Z,960.75
2017-08-21T04:27:38.133Z,960.75
2017-08-21T04:28:38.125Z,960.76
2017-08-21T04:29:38.118Z,960.74
2017-08-21T04:30:38.110Z,960.71
2017-08-21T04:31:38.101Z,960.76
2017-08-21T04:32:38.093Z,960.73
2017-08-21T04:33:38.084Z,960.74
2017-08-21T04:34:38.077Z,960.75
2017-08-21T04:35:38.070Z,960.74
2017-08-21T04:36:38.060Z,960.77
2017-08-21T04:37:38.052Z,960.75
2017-08-21T04:38:38.044Z,960.75
2017-08-21T04:39:38.049Z,960.76
2017-08-21T04:40:38.026Z,960.75
2017-08-21T04:41:38.027Z,960.75
2017-08-21T04:42:38.011Z,960.76
2017-08-21T04:43:38.004Z,960.77
2017-08-21T04:44:37.994Z,960.77
2017-08-21T04:45:37.986Z,960.81
2017-08-21T04:46:37.977Z,960.82
2017-08-21T04:47:37.970Z,960.83
2017-08-21T04:48:37.961Z,960.8
2017-08-21T04:49:37.954Z,960.8
2017-08-21T04:50:37.946Z,960.86
2017-08-21T04:51:37.938Z,960.86
2017-08-21T04:52:37.928Z,960.83
2017-08-21T04:53:37.920Z,960.84
2017-08-21T04:54:37.914Z,960.83
2017-08-21T04:55:37.904Z,960.89
2017-08-21T04:56:37.896Z,960.85
2017-08-21T04:57:37.907Z,960.87
2017-08-21T04:58:37.880Z,960.8
2017-08-21T04:59:37.871Z,960.82
2017-08-21T05:00:37.864Z,960.81
2017-08-21T05:01:37.854Z,960.78
2017-08-21T05:02:37.847Z,960.8
2017-08-21T05:03:37.845Z,960.84
2017-08-21T05:04:37.831Z,960.81
2017-08-21T05:05:37.824Z,960.83
2017-08-21T05:06:37.815Z,960.84
2017-08-21T05:07:37.857Z,960.83
2017-08-21T05:08:37.799Z,960.81
2017-08-21T05:09:37.791Z,960.83
2017-08-21T05:10:37.784Z,960.84
2017-08-21T05:11:37.776Z,960.87
2017-08-21T05:12:37.787Z,960.84
2017-08-21T05:13:37.760Z,960.88
2017-08-21T05:14:37.758Z,960.84
2017-08-21T05:15:37.744Z,960.85
2017-08-21T05:16:37.738Z,960.85
2017-08-21T05:17:37.729Z,960.86
2017-08-21T05:18:37.727Z,960.89
2017-08-21T05:19:37.714Z,960.9
2017-08-21T05:20:37.706Z,960.9
2017-08-21T05:21:37.696Z,960.92
2017-08-21T05:22:37.690Z,960.91
2017-08-21T05:23:37.683Z,960.94
2017-08-21T05:24:37.675Z,960.94
2017-08-21T05:25:37.666Z,960.92
2017-08-21T05:26:37.659Z,960.96
2017-08-21T05:27:37.652Z,960.94
2017-08-21T05:28:37.643Z,960.95
2017-08-21T05:29:37.637Z,960.97
2017-08-21T05:30:37.629Z,960.94
2017-08-21T05:31:37.621Z,960.97
2017-08-21T05:32:37.624Z,960.96
2017-08-21T05:33:37.610Z,960.96
2017-08-21T05:34:37.598Z,960.98
2017-08-21T05:35:37.593Z,960.99
2017-08-21T05:36:37.585Z,960.99
2017-08-21T05:37:37.579Z,961.02
2017-08-21T05:38:37.570Z,961.04
2017-08-21T05:39:37.562Z,961.02
2017-08-21T05:40:37.555Z,961.03
2017-08-21T05:41:37.569Z,961.02
2017-08-21T05:42:37.540Z,961.01
2017-08-21T05:43:37.533Z,961.03
2017-08-21T05:44:37.525Z,961.03
2017-08-21T05:45:37.525Z,961.04
2017-08-21T05:46:37.510Z,961.02
2017-08-21T05:47:37.504Z,961.04
2017-08-21T05:48:37.499Z,961.04
2017-08-21T05:49:37.490Z,961.03
2017-08-21T05:50:37.483Z,961.06
2017-08-21T05:51:37.477Z,961.04
2017-08-21T05:52:37.468Z,961.08
2017-08-21T05:53:37.461Z,961.05
2017-08-21T05:54:37.499Z,961.06
2017-08-21T05:55:37.448Z,961.09
2017-08-21T05:56:37.446Z,961.08
2017-08-21T05:57:37.437Z,961.1
2017-08-21T05:58:37.429Z,961.12
2017-08-21T05:59:37.422Z,961.12
2017-08-21T06:00:37.418Z,961.13
2017-08-21T06:01:37.408Z,961.13
2017-08-21T06:02:37.408Z,961.12
2017-08-21T06:03:37.396Z,961.13
2017-08-21T06:04:37.390Z,961.11
2017-08-21T06:05:37.382Z,961.13
2017-08-21T06:06:37.377Z,961.07
2017-08-21T06:07:37.370Z,961.12
2017-08-21T06:08:37.363Z,961.15
2017-08-21T06:09:37.357Z,961.15
2017-08-21T06:10:37.351Z,961.13
2017-08-21T06:11:37.345Z,961.12
2017-08-21T06:12:37.339Z,961.14
2017-08-21T06:13:37.333Z,961.16
2017-08-21T06:14:37.326Z,961.13
2017-08-21T06:15:37.320Z,961.11
2017-08-21T06:16:37.310Z,961.12
2017-08-21T06:17:37.304Z,961.13
2017-08-21T06:18:37.315Z,961.13
2017-08-21T06:19:37.294Z,961.15
2017-08-21T06:20:37.286Z,961.13
2017-08-21T06:21:37.282Z,961.14
2017-08-21T06:22:37.280Z,961.18
2017-08-21T06:23:37.269Z,961.21
2017-08-21T06:24:37.264Z,961.21
2017-08-21T06:25:37.258Z,961.18
2017-08-21T06:26:37.251Z,961.17
2017-08-21T06:27:37.268Z,961.19
2017-08-21T06:28:37.239Z,961.17
2017-08-21T06:29:37.234Z,961.21
2017-08-21T06:30:37.227Z,961.2
2017-08-21T06:31:37.221Z,961.24
2017-08-21T06:32:37.216Z,961.21
2017-08-21T06:33:37.213Z,961.2
2017-08-21T06:34:37.205Z,961.25
2017-08-21T06:35:37.214Z,961.21
2017-08-21T06:36:37.193Z,961.22
2017-08-21T06:37:37.186Z,961.22
2017-08-21T06:38:37.182Z,961.22
2017-08-21T06:39:37.175Z,961.19
2017-08-21T06:40:37.173Z,961.2
2017-08-21T06:41:37.164Z,961.2
2017-08-21T06:42:37.159Z,961.19
2017-08-21T06:43:37.160Z,961.23
2017-08-21T06:44:37.148Z,961.22
2017-08-21T06:45:37.141Z,961.18
2017-08-21T06:46:37.136Z,961.24
2017-08-21T06:47:37.131Z,961.25
2017-08-21T06:48:37.127Z,961.25
2017-08-21T06:49:37.120Z,961.27
2017-08-21T06:50:37.115Z,961.26
2017-08-21T06:51:37.108Z,961.26
2017-08-21T06:52:37.102Z,961.27
2017-08-21T06:53:37.098Z,961.28
2017-08-21T06:54:37.093Z,961.32
2017-08-21T06:55:37.097Z,961.33
2017-08-21T06:56:37.082Z,961.35
2017-08-21T06:57:37.075Z,961.37
2017-08-21T06:58:37.068Z,961.41
2017-08-21T06:59:37.064Z,961.42
2017-08-21T07:00:37.057Z,961.37
2017-08-21T07:01:37.063Z,961.38
2017-08-21T07:02:37.047Z,961.36
2017-08-21T07:03:37.043Z,961.34
2017-08-21T07:04:37.035Z,961.41
2017-08-21T07:05:37.052Z,961.87
2017-08-21T07:06:37.025Z,961.91
2017-08-21T07:07:37.018Z,961.78
2017-08-21T07:08:37.011Z,961.68
2017-08-21T07:09:37.008Z,961.42
2017-08-21T07:10:37.004Z,961.34
2017-08-21T07:11:36.997Z,961.47
2017-08-21T07:12:36.994Z,961.44
2017-08-21T07:13:36.990Z,961.4
2017-08-21T07:14:36.985Z,961.36
2017-08-21T07:15:36.982Z,961.36
2017-08-21T07:16:36.975Z,961.54
2017-08-21T07:17:36.973Z,961.44
2017-08-21T07:18:36.971Z,961.7
2017-08-21T07:19:36.968Z,961.63
2017-08-21T07:20:36.962Z,961.79
2017-08-21T07:21:36.981Z,961.79
2017-08-21T07:22:36.956Z,961.79
2017-08-21T07:23:36.952Z,961.27
2017-08-21T07:24:36.951Z,962.42
2017-08-21T07:25:36.966Z,962.57
2017-08-21T07:26:36.955Z,962.69
2017-08-21T07:27:36.941Z,962.63
2017-08-21T07:28:36.939Z,962.53
2017-08-21T07:29:36.936Z,962.02
2017-08-21T07:30:36.933Z,961.46
2017-08-21T07:31:36.931Z,961.3
2017-08-21T07:32:36.927Z,961.25
2017-08-21T07:33:36.926Z,961.33
2017-08-21T07:34:36.924Z,961.31
2017-08-21T07:35:36.922Z,961.36
2017-08-21T07:36:36.920Z,961.35
2017-08-21T07:37:36.917Z,961.33
2017-08-21T07:38:36.916Z,961.35
2017-08-21T07:39:36.913Z,961.34
2017-08-21T07:40:36.910Z,961.31
2017-08-21T07:41:36.907Z,961.3
2017-08-21T07:42:36.922Z,961.34
2017-08-21T07:43:36.909Z,961.32
2017-08-21T07:44:36.899Z,961.33
2017-08-21T07:45:36.898Z,961.34
2017-08-21T07:46:36.895Z,961.34
2017-08-21T07:47:36.895Z,961.34
2017-08-21T07:48:36.894Z,961.33
2017-08-21T07:49:36.889Z,961.34
2017-08-21T07:50:36.886Z,961.37
2017-08-21T07:51:36.885Z,961.31
2017-08-21T07:52:36.881Z,961.32
2017-08-21T07:53:36.879Z,961.3
2017-08-21T07:54:36.875Z,961.35
2017-08-21T07:55:36.874Z,961.34
2017-08-21T07:56:36.870Z,961.36
2017-08-21T07:57:36.893Z,961.4
2017-08-21T07:58:36.865Z,961.34
2017-08-21T07:59:36.864Z,961.32
2017-08-21T08:00:36.861Z,961.4
2017-08-21T08:01:36.858Z,961.39
2017-08-21T08:02:36.855Z,961.37
2017-08-21T08:03:36.851Z,961.38
2017-08-21T08:04:36.849Z,961.39
2017-08-21T08:05:36.844Z,961.34
2017-08-21T08:06:36.842Z,961.37
2017-08-21T08:07:36.843Z,961.35
2017-08-21T08:08:36.835Z,961.36
2017-08-21T08:09:36.831Z,961.42
2017-08-21T08:10:36.829Z,961.4
2017-08-21T08:11:36.827Z,961.43
2017-08-21T08:12:36.824Z,961.38
2017-08-21T08:13:36.820Z,961.4
2017-08-21T08:14:36.817Z,961.34
2017-08-21T08:15:36.814Z,961.36
2017-08-21T08:16:36.812Z,961.39
2017-08-21T08:17:36.809Z,961.44
2017-08-21T08:18:36.809Z,961.34
2017-08-21T08:19:36.804Z,961.38
2017-08-21T08:20:36.799Z,961.38
2017-08-21T08:21:36.808Z,961.38
2017-08-21T08:22:36.796Z,961.41
2017-08-21T08:23:36.793Z,961.34
2017-08-21T08:24:36.791Z,961.38
2017-08-21T08:25:36.787Z,961.33
2017-08-21T08:26:36.785Z,961.34
2017-08-21T08:27:36.781Z,961.28
2017-08-21T08:28:36.780Z,961.35
2017-08-21T08:29:36.780Z,961.34
2017-08-21T08:30:36.779Z,961.28
2017-08-21T08:31:36.773Z,961.35
2017-08-21T08:32:36.771Z,961.32
2017-08-21T08:33:36.768Z,961.32
2017-08-21T08:34:36.764Z,961.38
2017-08-21T08:35:36.760Z,961.39
2017-08-21T08:36:36.781Z,961.42
2017-08-21T08:37:36.757Z,961.43
2017-08-21T08:38:36.752Z,961.46
2017-08-21T08:39:36.749Z,961.44
2017-08-21T08:40:36.745Z,961.39
2017-08-21T08:41:36.742Z,961.38
2017-08-21T08:42:36.756Z,961.43
2017-08-21T08:43:36.735Z,961.4
2017-08-21T08:44:36.732Z,961.38
2017-08-21T08:45:36.726Z,961.31
2017-08-21T08:46:36.724Z,961.32
2017-08-21T08:47:36.722Z,961.28
2017-08-21T08:48:36.718Z,961.34
2017-08-21T08:49:36.712Z,961.24
2017-08-21T08:50:36.709Z,961.27
2017-08-21T08:51:36.704Z,961.25
2017-08-21T08:52:36.703Z,961.31
2017-08-21T08:53:36.698Z,961.32
2017-08-21T08:54:36.696Z,961.31
2017-08-21T08:55:36.693Z,961.43
2017-08-21T08:56:36.685Z,961.42
2017-08-21T08:57:36.685Z,961.39
2017-08-21T08:58:36.680Z,961.4
2017-08-21T08:59:36.680Z,961.4
2017-08-21T09:00:36.672Z,961.4
2017-08-21T09:01:36.670Z,961.37
2017-08-21T09:02:36.666Z,961.34
2017-08-21T09:03:36.680Z,961.36
2017-08-21T09:04:36.658Z,961.37
2017-08-21T09:05:36.657Z,961.33
2017-08-21T09:06:36.662Z,961.35
2017-08-21T09:07:36.649Z,961.43
2017-08-21T09:08:36.646Z,961.34
2017-08-21T09:09:36.641Z,961.36
2017-08-21T09:10:36.646Z,961.38
2017-08-21T09:11:36.634Z,961.38
2017-08-21T09:12:36.631Z,961.39
2017-08-21T09:13:36.628Z,961.41
2017-08-21T09:14:36.624Z,961.35
2017-08-21T09:15:36.619Z,961.38
2017-08-21T09:16:36.617Z,961.36
2017-08-21T09:17:36.613Z,961.4
2017-08-21T09:18:36.610Z,961.38
2017-08-21T09:19:36.607Z,961.29
2017-08-21T09:20:36.602Z,961.31
2017-08-21T09:21:36.600Z,961.3
2017-08-21T09:22:36.595Z,961.34
2017-08-21T09:23:36.593Z,961.27
2017-08-21T09:24:36.590Z,961.27
2017-08-21T09:25:36.585Z,961.26
2017-08-21T09:26:36.584Z,961.23
2017-08-21T09:27:36.580Z,961.23
2017-08-21T09:28:36.575Z,961.25
2017-08-21T09:29:36.574Z,961.26
2017-08-21T09:30:36.567Z,961.26
2017-08-21T09:31:36.566Z,961.29
2017-08-21T09:32:36.564Z,961.2
2017-08-21T09:33:36.559Z,961.22
2017-08-21T09:34:36.556Z,961.19
2017-08-21T09:35:36.557Z,961.21
2017-08-21T09:36:36.548Z,961.19
2017-08-21T09:37:36.544Z,961.15
2017-08-21T09:38:36.570Z,961.21
2017-08-21T09:39:36.540Z,961.17
2017-08-21T09:40:36.534Z,961.19
2017-08-21T09:41:36.531Z,961.2
2017-08-21T09:42:36.527Z,961.22
2017-08-21T09:43:36.525Z,961.22
2017-08-21T09:44:36.522Z,961.27
2017-08-21T09:45:36.520Z,961.22
2017-08-21T09:46:36.516Z,961.26
2017-08-21T09:47:36.513Z,961.25
2017-08-21T09:48:36.509Z,961.22
2017-08-21T09:49:36.505Z,961.22
2017-08-21T09:50:36.507Z,961.27
2017-08-21T09:51:36.496Z,961.21
2017-08-21T09:52:36.493Z,961.18
2017-08-21T09:53:36.490Z,961.2
2017-08-21T09:54:36.486Z,961.15
2017-08-21T09:55:36.482Z,961.21
2017-08-21T09:56:36.480Z,961.17
2017-08-21T09:57:36.477Z,961.17
2017-08-21T09:58:36.475Z,961.22
2017-08-21T09:59:36.468Z,961.2
2017-08-21T10:00:36.467Z,961.17
2017-08-21T10:01:36.464Z,961.14
2017-08-21T10:02:36.460Z,961.2
2017-08-21T10:03:36.458Z,961.17
2017-08-21T10:04:36.454Z,961.17
2017-08-21T10:05:36.451Z,961.17
2017-08-21T10:06:36.447Z,961.11
2017-08-21T10:07:36.444Z,961.16
2017-08-21T10:08:36.441Z,961.17
2017-08-21T10:09:36.439Z,961.16
2017-08-21T10:10:36.436Z,961.1
2017-08-21T10:11:36.434Z,961.15
2017-08-21T10:12:36.430Z,961.18
2017-08-21T10:13:36.427Z,961.18
2017-08-21T10:14:36.424Z,961.15
2017-08-21T10:15:36.422Z,961.14
2017-08-21T10:16:36.443Z,961.1
2017-08-21T10:17:36.417Z,961.13
2017-08-21T10:18:36.415Z,961.05
2017-08-21T10:19:36.413Z,961.09
2017-08-21T10:20:36.410Z,961.12
2017-08-21T10:21:36.409Z,961.08
2017-08-21T10:22:36.406Z,961.07
2017-08-21T10:23:36.404Z,961.05
2017-08-21T10:24:36.400Z,961.1
2017-08-21T10:25:36.399Z,961.1
2017-08-21T10:26:36.397Z,961.05
2017-08-21T10:27:36.394Z,961.08
2017-08-21T10:28:36.392Z,961.05
2017-08-21T10:29:36.388Z,961.07
2017-08-21T10:30:36.387Z,961.02
2017-08-21T10:31:36.383Z,961.06
2017-08-21T10:32:36.380Z,961.12
2017-08-21T10:33:36.378Z,961.1
2017-08-21T10:34:36.376Z,961.09
2017-08-21T10:35:36.373Z,961.1
2017-08-21T10:36:36.370Z,961.08
2017-08-21T10:37:36.367Z,961.12
2017-08-21T10:38:36.365Z,961.09
2017-08-21T10:39:36.363Z,961.09
2017-08-21T10:40:36.361Z,961.07
2017-08-21T10:41:36.358Z,961.04
2017-08-21T10:42:36.356Z,961.02
2017-08-21T10:43:36.352Z,961.12
2017-08-21T10:44:36.350Z,961.07
2017-08-21T10:45:36.350Z,961.03
2017-08-21T10:46:36.347Z,961.05
2017-08-21T10:47:36.344Z,961.12
2017-08-21T10:48:36.348Z,961.12
2017-08-21T10:49:36.364Z,961.08
2017-08-21T10:50:36.338Z,961.1
2017-08-21T10:51:36.336Z,961.12
2017-08-21T10:52:36.334Z,961.13
2017-08-21T10:53:36.331Z,961.13
2017-08-21T10:54:36.336Z,961.09
2017-08-21T10:55:36.325Z,961.11
2017-08-21T10:56:36.324Z,961.09
2017-08-21T10:57:36.322Z,961.08
2017-08-21T10:58:36.319Z,961.07
2017-08-21T10:59:36.322Z,961.1
2017-08-21T11:00:36.317Z,961.1
2017-08-21T11:01:36.313Z,961.12
2017-08-21T11:02:36.311Z,961.1
2017-08-21T11:03:36.308Z,961.07
2017-08-21T11:04:36.305Z,961.04
2017-08-21T11:05:36.302Z,961.07
2017-08-21T11:06:36.298Z,961.05
2017-08-21T11:07:36.297Z,961.03
2017-08-21T11:08:36.306Z,961.04
2017-08-21T11:09:36.293Z,961.02
2017-08-21T11:10:36.293Z,961
2017-08-21T11:11:36.291Z,960.97
2017-08-21T11:12:36.298Z,961.01
2017-08-21T11:13:36.286Z,960.98
2017-08-21T11:14:36.284Z,960.93
2017-08-21T11:15:36.281Z,960.99
2017-08-21T11:16:36.279Z,961
2017-08-21T11:17:36.278Z,961.04
2017-08-21T11:18:36.275Z,961.02
2017-08-21T11:19:36.273Z,960.99
2017-08-21T11:20:36.271Z,961.07
2017-08-21T11:21:36.283Z,961.03
2017-08-21T11:22:36.268Z,961.09
2017-08-21T11:23:36.265Z,961.06
2017-08-21T11:24:36.263Z,961.11
2017-08-21T11:25:36.275Z,961.08
2017-08-21T11:26:36.259Z,961.06
2017-08-21T11:27:36.256Z,961.04
2017-08-21T11:28:36.254Z,961.01
2017-08-21T11:29:36.252Z,961.02
2017-08-21T11:30:36.249Z,961.02
2017-08-21T11:31:36.246Z,960.98
2017-08-21T11:32:36.244Z,960.93
2017-08-21T11:33:36.244Z,960.98
2017-08-21T11:34:36.260Z,961.01
2017-08-21T11:35:36.237Z,960.92
2017-08-21T11:36:36.236Z,960.96
2017-08-21T11:37:36.233Z,960.94
2017-08-21T11:38:36.250Z,960.96
2017-08-21T11:39:36.229Z,961
2017-08-21T11:40:36.227Z,960.96
2017-08-21T11:41:36.223Z,960.98
2017-08-21T11:42:36.224Z,960.95
2017-08-21T11:43:36.220Z,960.91
2017-08-21T11:44:36.220Z,960.9
2017-08-21T11:45:36.217Z,960.93
2017-08-21T11:46:36.214Z,960.94
2017-08-21T11:47:36.211Z,960.91
2017-08-21T11:48:36.213Z,960.93
2017-08-21T11:49:36.206Z,960.91
2017-08-21T11:50:36.210Z,960.94
2017-08-21T11:51:36.203Z,960.89
2017-08-21T11:52:36.205Z,960.89
2017-08-21T11:53:36.199Z,960.9
2017-08-21T11:54:36.195Z,960.9
2017-08-21T11:55:36.194Z,960.92
2017-08-21T11:56:36.192Z,960.89
2017-08-21T11:57:36.190Z,960.87
2017-08-21T11:58:36.189Z,960.86
2017-08-21T11:59:36.187Z,960.88
2017-08-21T12:00:36.182Z,960.84
2017-08-21T12:01:36.183Z,960.88
2017-08-21T12:02:36.182Z,960.86
2017-08-21T12:03:36.178Z,960.84
2017-08-21T12:04:36.176Z,960.85
2017-08-21T12:05:36.173Z,960.84
2017-08-21T12:06:36.172Z,960.79
2017-08-21T12:07:36.169Z,960.76
2017-08-21T12:08:36.168Z,960.79
2017-08-21T12:09:36.166Z,960.8
2017-08-21T12:10:36.162Z,960.8
2017-08-21T12:11:36.164Z,960.79
2017-08-21T12:12:36.181Z,960.8
2017-08-21T12:13:36.163Z,960.79
2017-08-21T12:14:36.162Z,960.75
2017-08-21T12:15:36.168Z,960.71
2017-08-21T12:16:36.154Z,960.72
2017-08-21T12:17:36.150Z,960.67
2017-08-21T12:18:36.150Z,960.61
2017-08-21T12:19:36.147Z,960.65
2017-08-21T12:20:36.145Z,960.7
2017-08-21T12:21:36.143Z,960.74
2017-08-21T12:22:36.142Z,960.7
2017-08-21T12:23:36.140Z,960.72
2017-08-21T12:24:36.138Z,960.72
2017-08-21T12:25:36.134Z,960.71
2017-08-21T12:26:36.133Z,960.75
2017-08-21T12:27:36.132Z,960.74
2017-08-21T12:28:36.128Z,960.72
2017-08-21T12:29:36.149Z,960.72
2017-08-21T12:30:36.125Z,960.74
2017-08-21T12:31:36.121Z,960.71